Jamesport, Missouri
Current Conditions -  °F | °C
As of 3:53 AM on Saturday 25 Oct 2014 (Local Time) from KLWD Reporting Station
NA  
Wind Chill: 53°   Ceiling: NA
Heat Index: 53°   Visibility: NA
Dew Point: 52°   Wind: 7mph
Humidity: 96%   Direction: 320°NW
Pressure: 30.01"   Gusts: NA
Location:  39.97°N, 93.8°W
Report Text: KLWD 250853Z AUTO 32006KT 12/11 A3001 RMK AO2 SLP160 T01170111 52007 $
Loading
Personal Weather Stations






























Interactive Weather Map
Tropical Storm Tracking
New forecast layout! Learn more

10-Day Weather Forecast

Advertisements
Track Severe Weather on mobile